sensor_id;sensor_type;location;lat;lon;timestamp;temperature;humidity
66271;DHT22;53063;39.614;8.814;2023-04-30T00:00:56;18.40;99.60
66271;DHT22;53063;39.614;8.814;2023-04-30T00:03:22;18.40;99.30
66271;DHT22;53063;39.614;8.814;2023-04-30T00:05:52;18.40;99.30
66271;DHT22;53063;39.614;8.814;2023-04-30T00:08:18;18.30;98.70
66271;DHT22;53063;39.614;8.814;2023-04-30T00:10:43;18.30;99.00
66271;DHT22;53063;39.614;8.814;2023-04-30T00:13:10;18.30;99.10
66271;DHT22;53063;39.614;8.814;2023-04-30T00:15:38;18.10;99.90
66271;DHT22;53063;39.614;8.814;2023-04-30T00:18:04;18.00;99.90
66271;DHT22;53063;39.614;8.814;2023-04-30T00:20:32;18.10;99.90
66271;DHT22;53063;39.614;8.814;2023-04-30T00:22:59;18.20;99.90
66271;DHT22;53063;39.614;8.814;2023-04-30T00:25:25;18.20;99.90
66271;DHT22;53063;39.614;8.814;2023-04-30T00:27:51;18.20;99.90
66271;DHT22;53063;39.614;8.814;2023-04-30T00:30:17;18.20;99.90
66271;DHT22;53063;39.614;8.814;2023-04-30T00:32:43;18.30;99.90
66271;DHT22;53063;39.614;8.814;2023-04-30T00:35:11;18.40;99.90
66271;DHT22;53063;39.614;8.814;2023-04-30T00:37:37;18.50;99.10
66271;DHT22;53063;39.614;8.814;2023-04-30T00:40:03;18.40;98.80
66271;DHT22;53063;39.614;8.814;2023-04-30T00:42:29;18.40;99.00
66271;DHT22;53063;39.614;8.814;2023-04-30T00:44:55;18.30;98.20
66271;DHT22;53063;39.614;8.814;2023-04-30T00:47:21;18.20;98.70
66271;DHT22;53063;39.614;8.814;2023-04-30T00:49:47;18.00;99.00
66271;DHT22;53063;39.614;8.814;2023-04-30T00:52:13;17.90;99.60
66271;DHT22;53063;39.614;8.814;2023-04-30T00:54:40;17.90;98.80
66271;DHT22;53063;39.614;8.814;2023-04-30T00:57:06;18.00;97.60
66271;DHT22;53063;39.614;8.814;2023-04-30T00:59:34;18.00;96.60
66271;DHT22;53063;39.614;8.814;2023-04-30T01:02:01;17.90;95.00
66271;DHT22;53063;39.614;8.814;2023-04-30T01:04:27;17.90;94.60
66271;DHT22;53063;39.614;8.814;2023-04-30T01:06:53;18.00;93.60
66271;DHT22;53063;39.614;8.814;2023-04-30T01:09:20;18.10;91.80
66271;DHT22;53063;39.614;8.814;2023-04-30T01:14:37;18.30;90.00
66271;DHT22;53063;39.614;8.814;2023-04-30T01:17:24;18.40;89.10
66271;DHT22;53063;39.614;8.814;2023-04-30T01:19:53;18.40;89.00
66271;DHT22;53063;39.614;8.814;2023-04-30T01:30:15;18.40;89.60
66271;DHT22;53063;39.614;8.814;2023-04-30T01:32:41;18.40;89.50
66271;DHT22;53063;39.614;8.814;2023-04-30T01:35:07;18.40;89.80
66271;DHT22;53063;39.614;8.814;2023-04-30T01:40:46;18.30;90.30
66271;DHT22;53063;39.614;8.814;2023-04-30T01:46:23;18.00;93.50
66271;DHT22;53063;39.614;8.814;2023-04-30T01:51:42;17.90;96.00
66271;DHT22;53063;39.614;8.814;2023-04-30T01:54:35;18.00;96.50
66271;DHT22;53063;39.614;8.814;2023-04-30T01:57:06;18.00;96.70
66271;DHT22;53063;39.614;8.814;2023-04-30T01:59:35;18.00;96.40
66271;DHT22;53063;39.614;8.814;2023-04-30T02:02:03;18.10;96.40
66271;DHT22;53063;39.614;8.814;2023-04-30T02:04:29;18.10;96.20
66271;DHT22;53063;39.614;8.814;2023-04-30T02:06:55;18.00;95.80
66271;DHT22;53063;39.614;8.814;2023-04-30T02:09:23;17.90;96.50
66271;DHT22;53063;39.614;8.814;2023-04-30T02:11:49;17.80;97.20
66271;DHT22;53063;39.614;8.814;2023-04-30T02:14:16;17.80;97.80
66271;DHT22;53063;39.614;8.814;2023-04-30T02:16:42;17.70;97.90
66271;DHT22;53063;39.614;8.814;2023-04-30T02:19:08;17.70;97.40
66271;DHT22;53063;39.614;8.814;2023-04-30T02:21:34;17.90;95.50
66271;DHT22;53063;39.614;8.814;2023-04-30T02:23:59;18.10;92.50
66271;DHT22;53063;39.614;8.814;2023-04-30T02:26:25;18.30;90.40
66271;DHT22;53063;39.614;8.814;2023-04-30T02:28:52;18.40;89.10
66271;DHT22;53063;39.614;8.814;2023-04-30T02:31:18;18.40;89.10
66271;DHT22;53063;39.614;8.814;2023-04-30T02:33:44;18.40;88.60
66271;DHT22;53063;39.614;8.814;2023-04-30T02:36:10;18.40;88.80
66271;DHT22;53063;39.614;8.814;2023-04-30T02:38:36;18.40;89.50
66271;DHT22;53063;39.614;8.814;2023-04-30T02:41:02;18.40;90.20
66271;DHT22;53063;39.614;8.814;2023-04-30T02:43:28;18.40;90.70
66271;DHT22;53063;39.614;8.814;2023-04-30T02:45:54;18.40;91.00
66271;DHT22;53063;39.614;8.814;2023-04-30T02:48:20;18.50;91.20
66271;DHT22;53063;39.614;8.814;2023-04-30T02:50:46;18.40;91.50
66271;DHT22;53063;39.614;8.814;2023-04-30T02:53:12;18.40;92.20
66271;DHT22;53063;39.614;8.814;2023-04-30T02:55:38;18.30;92.70
66271;DHT22;53063;39.614;8.814;2023-04-30T02:58:04;18.20;93.50
66271;DHT22;53063;39.614;8.814;2023-04-30T03:00:30;18.20;94.60
66271;DHT22;53063;39.614;8.814;2023-04-30T03:02:56;18.20;95.30
66271;DHT22;53063;39.614;8.814;2023-04-30T03:05:22;18.00;96.10
66271;DHT22;53063;39.614;8.814;2023-04-30T03:07:48;18.00;97.60
66271;DHT22;53063;39.614;8.814;2023-04-30T03:10:14;18.00;98.80
66271;DHT22;53063;39.614;8.814;2023-04-30T03:12:41;18.00;99.90
66271;DHT22;53063;39.614;8.814;2023-04-30T03:15:07;18.00;99.90
66271;DHT22;53063;39.614;8.814;2023-04-30T03:17:33;18.10;99.90
66271;DHT22;53063;39.614;8.814;2023-04-30T03:19:59;18.10;99.90
66271;DHT22;53063;39.614;8.814;2023-04-30T03:22:25;18.10;99.90
66271;DHT22;53063;39.614;8.814;2023-04-30T03:24:51;18.00;99.90
66271;DHT22;53063;39.614;8.814;2023-04-30T03:27:17;18.00;99.90
66271;DHT22;53063;39.614;8.814;2023-04-30T03:29:43;18.00;99.90
66271;DHT22;53063;39.614;8.814;2023-04-30T03:32:09;17.90;99.90
66271;DHT22;53063;39.614;8.814;2023-04-30T03:34:36;17.90;99.90
66271;DHT22;53063;39.614;8.814;2023-04-30T03:37:02;17.80;99.90
66271;DHT22;53063;39.614;8.814;2023-04-30T03:39:28;17.70;99.90
66271;DHT22;53063;39.614;8.814;2023-04-30T03:41:54;17.70;99.90
66271;DHT22;53063;39.614;8.814;2023-04-30T03:44:20;17.70;99.90
66271;DHT22;53063;39.614;8.814;2023-04-30T03:46:47;17.60;99.90
66271;DHT22;53063;39.614;8.814;2023-04-30T03:49:13;17.50;99.90
66271;DHT22;53063;39.614;8.814;2023-04-30T03:51:39;17.50;99.90
66271;DHT22;53063;39.614;8.814;2023-04-30T03:54:06;17.50;99.90
66271;DHT22;53063;39.614;8.814;2023-04-30T03:56:33;17.50;99.90
66271;DHT22;53063;39.614;8.814;2023-04-30T03:58:59;17.40;99.90
66271;DHT22;53063;39.614;8.814;2023-04-30T04:01:27;17.40;99.90
66271;DHT22;53063;39.614;8.814;2023-04-30T04:03:53;17.40;99.90
66271;DHT22;53063;39.614;8.814;2023-04-30T04:06:20;17.40;99.90
66271;DHT22;53063;39.614;8.814;2023-04-30T04:08:47;17.40;99.90
66271;DHT22;53063;39.614;8.814;2023-04-30T04:11:13;17.40;99.90
66271;DHT22;53063;39.614;8.814;2023-04-30T04:13:39;17.50;99.90
66271;DHT22;53063;39.614;8.814;2023-04-30T04:16:05;17.60;99.90
66271;DHT22;53063;39.614;8.814;2023-04-30T04:18:33;17.60;99.90
66271;DHT22;53063;39.614;8.814;2023-04-30T04:20:59;17.70;99.90
66271;DHT22;53063;39.614;8.814;2023-04-30T04:23:27;17.70;99.90
66271;DHT22;53063;39.614;8.814;2023-04-30T04:25:53;17.70;99.90
66271;DHT22;53063;39.614;8.814;2023-04-30T04:28:20;17.60;99.90
66271;DHT22;53063;39.614;8.814;2023-04-30T04:30:46;17.60;99.90
66271;DHT22;53063;39.614;8.814;2023-04-30T04:33:12;17.70;99.90
66271;DHT22;53063;39.614;8.814;2023-04-30T04:35:38;17.80;99.90
66271;DHT22;53063;39.614;8.814;2023-04-30T04:38:04;17.80;99.90
66271;DHT22;53063;39.614;8.814;2023-04-30T04:40:31;17.80;99.90
66271;DHT22;53063;39.614;8.814;2023-04-30T04:42:57;17.70;99.90
66271;DHT22;53063;39.614;8.814;2023-04-30T04:45:23;17.70;99.90
66271;DHT22;53063;39.614;8.814;2023-04-30T04:47:49;17.70;99.90
66271;DHT22;53063;39.614;8.814;2023-04-30T04:50:16;17.70;99.90
66271;DHT22;53063;39.614;8.814;2023-04-30T04:52:42;17.70;99.90
66271;DHT22;53063;39.614;8.814;2023-04-30T04:55:08;17.70;99.90
66271;DHT22;53063;39.614;8.814;2023-04-30T04:57:35;17.70;99.90
66271;DHT22;53063;39.614;8.814;2023-04-30T05:00:01;17.70;99.90
66271;DHT22;53063;39.614;8.814;2023-04-30T05:02:27;17.80;99.90
66271;DHT22;53063;39.614;8.814;2023-04-30T05:04:54;17.70;99.90
66271;DHT22;53063;39.614;8.814;2023-04-30T05:07:21;17.70;99.90
66271;DHT22;53063;39.614;8.814;2023-04-30T05:09:47;17.70;99.90
66271;DHT22;53063;39.614;8.814;2023-04-30T05:12:14;17.80;99.90
66271;DHT22;53063;39.614;8.814;2023-04-30T05:14:40;17.80;99.90
66271;DHT22;53063;39.614;8.814;2023-04-30T05:17:06;17.90;99.90
66271;DHT22;53063;39.614;8.814;2023-04-30T05:19:32;17.90;99.90
66271;DHT22;53063;39.614;8.814;2023-04-30T05:21:58;18.00;99.90
66271;DHT22;53063;39.614;8.814;2023-04-30T05:24:26;17.90;99.90
66271;DHT22;53063;39.614;8.814;2023-04-30T05:26:52;17.80;99.90
66271;DHT22;53063;39.614;8.814;2023-04-30T05:29:18;17.70;99.90
66271;DHT22;53063;39.614;8.814;2023-04-30T05:31:44;17.70;99.90
66271;DHT22;53063;39.614;8.814;2023-04-30T05:34:10;17.70;99.90
66271;DHT22;53063;39.614;8.814;2023-04-30T05:36:36;17.70;99.90
66271;DHT22;53063;39.614;8.814;2023-04-30T05:39:02;17.60;99.90
66271;DHT22;53063;39.614;8.814;2023-04-30T05:41:29;17.70;99.90
66271;DHT22;53063;39.614;8.814;2023-04-30T05:43:55;17.70;99.90
66271;DHT22;53063;39.614;8.814;2023-04-30T05:46:20;17.60;99.90
66271;DHT22;53063;39.614;8.814;2023-04-30T05:48:46;17.60;99.90
66271;DHT22;53063;39.614;8.814;2023-04-30T05:51:13;17.70;99.90
66271;DHT22;53063;39.614;8.814;2023-04-30T05:53:38;17.70;99.90
66271;DHT22;53063;39.614;8.814;2023-04-30T05:56:05;17.80;99.90
66271;DHT22;53063;39.614;8.814;2023-04-30T05:58:31;17.90;99.90
66271;DHT22;53063;39.614;8.814;2023-04-30T06:00:58;17.90;99.90
66271;DHT22;53063;39.614;8.814;2023-04-30T06:03:23;17.90;99.90
66271;DHT22;53063;39.614;8.814;2023-04-30T06:05:50;17.90;99.90
66271;DHT22;53063;39.614;8.814;2023-04-30T06:08:15;18.00;99.90
66271;DHT22;53063;39.614;8.814;2023-04-30T06:10:41;18.00;99.90
66271;DHT22;53063;39.614;8.814;2023-04-30T06:13:07;17.90;99.90
66271;DHT22;53063;39.614;8.814;2023-04-30T06:15:33;17.90;99.90
66271;DHT22;53063;39.614;8.814;2023-04-30T06:17:59;17.80;99.90
66271;DHT22;53063;39.614;8.814;2023-04-30T06:20:25;17.80;99.90
66271;DHT22;53063;39.614;8.814;2023-04-30T06:22:52;17.90;99.90
66271;DHT22;53063;39.614;8.814;2023-04-30T06:25:18;18.00;99.90
66271;DHT22;53063;39.614;8.814;2023-04-30T06:27:45;18.00;99.90
66271;DHT22;53063;39.614;8.814;2023-04-30T06:30:11;18.00;99.90
66271;DHT22;53063;39.614;8.814;2023-04-30T06:32:37;18.00;99.90
66271;DHT22;53063;39.614;8.814;2023-04-30T06:35:04;18.00;99.90
66271;DHT22;53063;39.614;8.814;2023-04-30T06:37:30;18.00;99.90
66271;DHT22;53063;39.614;8.814;2023-04-30T06:40:03;18.00;99.90
66271;DHT22;53063;39.614;8.814;2023-04-30T06:42:29;18.00;99.90
66271;DHT22;53063;39.614;8.814;2023-04-30T06:45:02;18.00;99.90
66271;DHT22;53063;39.614;8.814;2023-04-30T06:47:29;18.00;99.90
66271;DHT22;53063;39.614;8.814;2023-04-30T06:50:00;17.90;99.90
66271;DHT22;53063;39.614;8.814;2023-04-30T06:52:26;17.90;99.90
66271;DHT22;53063;39.614;8.814;2023-04-30T06:54:52;18.10;99.90
66271;DHT22;53063;39.614;8.814;2023-04-30T06:57:17;18.10;99.90
66271;DHT22;53063;39.614;8.814;2023-04-30T06:59:43;18.20;99.90
66271;DHT22;53063;39.614;8.814;2023-04-30T07:02:09;18.30;99.90
66271;DHT22;53063;39.614;8.814;2023-04-30T07:04:35;18.10;99.90
66271;DHT22;53063;39.614;8.814;2023-04-30T07:07:01;18.00;99.90
66271;DHT22;53063;39.614;8.814;2023-04-30T07:09:28;17.90;99.90
66271;DHT22;53063;39.614;8.814;2023-04-30T07:11:54;17.90;99.90
66271;DHT22;53063;39.614;8.814;2023-04-30T07:14:21;18.00;99.90
66271;DHT22;53063;39.614;8.814;2023-04-30T07:16:51;17.90;99.90
66271;DHT22;53063;39.614;8.814;2023-04-30T07:19:17;17.90;99.90
66271;DHT22;53063;39.614;8.814;2023-04-30T07:21:43;17.80;99.90
66271;DHT22;53063;39.614;8.814;2023-04-30T07:24:09;17.70;99.90
66271;DHT22;53063;39.614;8.814;2023-04-30T07:26:35;17.70;99.90
66271;DHT22;53063;39.614;8.814;2023-04-30T07:29:01;17.70;99.90
66271;DHT22;53063;39.614;8.814;2023-04-30T07:31:28;17.80;99.90
66271;DHT22;53063;39.614;8.814;2023-04-30T07:33:54;17.90;99.90
66271;DHT22;53063;39.614;8.814;2023-04-30T07:36:21;17.90;99.90
66271;DHT22;53063;39.614;8.814;2023-04-30T07:38:47;17.90;99.90
66271;DHT22;53063;39.614;8.814;2023-04-30T07:41:13;17.90;99.90
66271;DHT22;53063;39.614;8.814;2023-04-30T07:43:39;18.00;99.90
66271;DHT22;53063;39.614;8.814;2023-04-30T07:46:05;18.00;99.90
66271;DHT22;53063;39.614;8.814;2023-04-30T07:48:31;18.00;99.90
66271;DHT22;53063;39.614;8.814;2023-04-30T07:50:57;18.00;99.90
66271;DHT22;53063;39.614;8.814;2023-04-30T07:53:23;18.00;99.90
66271;DHT22;53063;39.614;8.814;2023-04-30T07:55:48;18.10;99.90
66271;DHT22;53063;39.614;8.814;2023-04-30T07:58:14;18.10;99.90
66271;DHT22;53063;39.614;8.814;2023-04-30T08:00:40;18.20;99.90
66271;DHT22;53063;39.614;8.814;2023-04-30T08:03:06;18.20;99.90
66271;DHT22;53063;39.614;8.814;2023-04-30T08:05:33;18.20;99.90
66271;DHT22;53063;39.614;8.814;2023-04-30T08:07:59;18.20;99.90
66271;DHT22;53063;39.614;8.814;2023-04-30T08:10:25;18.10;99.90
66271;DHT22;53063;39.614;8.814;2023-04-30T08:12:51;18.00;99.90
66271;DHT22;53063;39.614;8.814;2023-04-30T08:15:17;18.00;99.90
66271;DHT22;53063;39.614;8.814;2023-04-30T08:17:50;18.00;99.90
66271;DHT22;53063;39.614;8.814;2023-04-30T08:20:16;18.20;99.90
66271;DHT22;53063;39.614;8.814;2023-04-30T08:22:45;18.20;99.90
66271;DHT22;53063;39.614;8.814;2023-04-30T08:25:11;18.30;99.90
66271;DHT22;53063;39.614;8.814;2023-04-30T08:27:38;18.30;99.90
66271;DHT22;53063;39.614;8.814;2023-04-30T08:30:05;18.40;99.90
66271;DHT22;53063;39.614;8.814;2023-04-30T08:32:35;18.30;99.90
66271;DHT22;53063;39.614;8.814;2023-04-30T08:35:04;18.30;99.90
66271;DHT22;53063;39.614;8.814;2023-04-30T08:37:31;18.30;99.90
66271;DHT22;53063;39.614;8.814;2023-04-30T08:39:57;18.30;99.90
66271;DHT22;53063;39.614;8.814;2023-04-30T08:42:35;18.30;99.90
66271;DHT22;53063;39.614;8.814;2023-04-30T08:45:03;18.40;99.90
66271;DHT22;53063;39.614;8.814;2023-04-30T08:47:29;18.30;99.90
66271;DHT22;53063;39.614;8.814;2023-04-30T08:49:56;18.30;99.90
66271;DHT22;53063;39.614;8.814;2023-04-30T08:52:22;18.30;99.90
66271;DHT22;53063;39.614;8.814;2023-04-30T08:54:53;18.30;99.90
66271;DHT22;53063;39.614;8.814;2023-04-30T08:57:19;18.30;99.90
66271;DHT22;53063;39.614;8.814;2023-04-30T08:59:45;18.30;99.90
66271;DHT22;53063;39.614;8.814;2023-04-30T09:02:13;18.40;99.90
66271;DHT22;53063;39.614;8.814;2023-04-30T09:04:39;18.50;99.90
66271;DHT22;53063;39.614;8.814;2023-04-30T09:07:06;18.40;99.90
66271;DHT22;53063;39.614;8.814;2023-04-30T09:09:37;18.50;99.90
66271;DHT22;53063;39.614;8.814;2023-04-30T09:12:17;18.70;99.90
66271;DHT22;53063;39.614;8.814;2023-04-30T09:15:01;18.80;99.90
66271;DHT22;53063;39.614;8.814;2023-04-30T09:17:28;18.80;99.90
66271;DHT22;53063;39.614;8.814;2023-04-30T09:20:16;18.90;99.90
66271;DHT22;53063;39.614;8.814;2023-04-30T09:22:42;18.90;99.90
66271;DHT22;53063;39.614;8.814;2023-04-30T09:25:09;18.90;99.90
66271;DHT22;53063;39.614;8.814;2023-04-30T09:27:35;18.90;99.90
66271;DHT22;53063;39.614;8.814;2023-04-30T09:30:02;19.00;99.90
66271;DHT22;53063;39.614;8.814;2023-04-30T09:32:29;19.10;99.90
66271;DHT22;53063;39.614;8.814;2023-04-30T09:34:55;18.90;99.90
66271;DHT22;53063;39.614;8.814;2023-04-30T09:37:21;18.90;99.90
66271;DHT22;53063;39.614;8.814;2023-04-30T09:39:52;19.00;99.90
66271;DHT22;53063;39.614;8.814;2023-04-30T09:42:18;18.90;99.90
66271;DHT22;53063;39.614;8.814;2023-04-30T09:44:45;18.90;99.90
66271;DHT22;53063;39.614;8.814;2023-04-30T09:47:18;18.90;99.90
66271;DHT22;53063;39.614;8.814;2023-04-30T09:49:49;19.10;99.90
66271;DHT22;53063;39.614;8.814;2023-04-30T09:52:18;19.00;99.90
66271;DHT22;53063;39.614;8.814;2023-04-30T09:54:45;19.00;99.90
66271;DHT22;53063;39.614;8.814;2023-04-30T09:57:15;19.00;99.90
66271;DHT22;53063;39.614;8.814;2023-04-30T09:59:45;19.10;99.90
66271;DHT22;53063;39.614;8.814;2023-04-30T10:02:14;19.30;99.90
66271;DHT22;53063;39.614;8.814;2023-04-30T10:04:44;19.30;99.90
66271;DHT22;53063;39.614;8.814;2023-04-30T10:07:19;19.40;99.90
66271;DHT22;53063;39.614;8.814;2023-04-30T10:09:56;19.60;99.90
66271;DHT22;53063;39.614;8.814;2023-04-30T10:12:32;19.80;99.90
66271;DHT22;53063;39.614;8.814;2023-04-30T10:15:20;19.80;99.90
66271;DHT22;53063;39.614;8.814;2023-04-30T10:17:55;19.90;99.90
66271;DHT22;53063;39.614;8.814;2023-04-30T10:20:22;19.80;99.90
66271;DHT22;53063;39.614;8.814;2023-04-30T10:22:49;19.70;99.90
66271;DHT22;53063;39.614;8.814;2023-04-30T10:25:16;19.80;99.90
66271;DHT22;53063;39.614;8.814;2023-04-30T10:27:43;19.80;99.90
66271;DHT22;53063;39.614;8.814;2023-04-30T10:30:09;19.90;99.90
66271;DHT22;53063;39.614;8.814;2023-04-30T10:35:32;19.90;99.90
66271;DHT22;53063;39.614;8.814;2023-04-30T10:38:11;20.00;99.90
66271;DHT22;53063;39.614;8.814;2023-04-30T10:40:39;20.10;99.90
66271;DHT22;53063;39.614;8.814;2023-04-30T10:43:05;20.20;99.90
66271;DHT22;53063;39.614;8.814;2023-04-30T10:45:35;20.30;99.90
66271;DHT22;53063;39.614;8.814;2023-04-30T10:48:03;20.30;99.90
66271;DHT22;53063;39.614;8.814;2023-04-30T10:50:29;20.40;99.90
66271;DHT22;53063;39.614;8.814;2023-04-30T10:53:02;20.40;99.90
66271;DHT22;53063;39.614;8.814;2023-04-30T10:55:32;20.50;99.90
66271;DHT22;53063;39.614;8.814;2023-04-30T10:57:58;20.50;99.90
66271;DHT22;53063;39.614;8.814;2023-04-30T11:00:28;20.50;99.90
66271;DHT22;53063;39.614;8.814;2023-04-30T11:03:02;20.50;99.90
66271;DHT22;53063;39.614;8.814;2023-04-30T11:05:38;20.50;99.90
66271;DHT22;53063;39.614;8.814;2023-04-30T11:08:04;20.40;99.90
66271;DHT22;53063;39.614;8.814;2023-04-30T11:10:35;20.30;99.90
66271;DHT22;53063;39.614;8.814;2023-04-30T11:13:05;20.20;99.90
66271;DHT22;53063;39.614;8.814;2023-04-30T11:15:44;20.20;99.90
66271;DHT22;53063;39.614;8.814;2023-04-30T11:18:12;20.30;99.90
66271;DHT22;53063;39.614;8.814;2023-04-30T11:20:51;20.30;99.90
66271;DHT22;53063;39.614;8.814;2023-04-30T11:23:22;20.20;99.90
66271;DHT22;53063;39.614;8.814;2023-04-30T11:25:48;20.30;99.90
66271;DHT22;53063;39.614;8.814;2023-04-30T11:28:17;20.30;99.90
66271;DHT22;53063;39.614;8.814;2023-04-30T11:30:59;20.30;99.90
66271;DHT22;53063;39.614;8.814;2023-04-30T11:33:27;20.20;99.90
66271;DHT22;53063;39.614;8.814;2023-04-30T11:35:58;20.30;99.90
66271;DHT22;53063;39.614;8.814;2023-04-30T11:38:27;20.30;99.90
66271;DHT22;53063;39.614;8.814;2023-04-30T11:40:53;20.30;99.90
66271;DHT22;53063;39.614;8.814;2023-04-30T11:43:23;20.30;99.90
66271;DHT22;53063;39.614;8.814;2023-04-30T11:46:04;20.30;99.90
66271;DHT22;53063;39.614;8.814;2023-04-30T11:48:32;20.30;99.90
66271;DHT22;53063;39.614;8.814;2023-04-30T11:50:59;20.40;99.90
66271;DHT22;53063;39.614;8.814;2023-04-30T11:53:27;20.60;99.90
66271;DHT22;53063;39.614;8.814;2023-04-30T11:55:54;21.20;99.90
66271;DHT22;53063;39.614;8.814;2023-04-30T11:58:20;21.60;99.90
66271;DHT22;53063;39.614;8.814;2023-04-30T12:00:47;22.40;99.90
66271;DHT22;53063;39.614;8.814;2023-04-30T12:03:14;22.80;99.90
66271;DHT22;53063;39.614;8.814;2023-04-30T12:05:41;23.20;96.80
66271;DHT22;53063;39.614;8.814;2023-04-30T12:08:07;23.10;94.40
66271;DHT22;53063;39.614;8.814;2023-04-30T12:10:35;23.10;95.00
66271;DHT22;53063;39.614;8.814;2023-04-30T12:13:01;23.30;93.70
66271;DHT22;53063;39.614;8.814;2023-04-30T12:15:28;23.60;93.20
66271;DHT22;53063;39.614;8.814;2023-04-30T12:17:56;23.60;91.00
66271;DHT22;53063;39.614;8.814;2023-04-30T12:20:24;23.50;89.60
66271;DHT22;53063;39.614;8.814;2023-04-30T12:22:50;23.70;89.20
66271;DHT22;53063;39.614;8.814;2023-04-30T12:25:18;24.00;85.90
66271;DHT22;53063;39.614;8.814;2023-04-30T12:27:46;24.60;84.20
66271;DHT22;53063;39.614;8.814;2023-04-30T12:30:13;24.20;83.60
66271;DHT22;53063;39.614;8.814;2023-04-30T12:32:44;23.70;83.70
66271;DHT22;53063;39.614;8.814;2023-04-30T12:35:15;23.70;86.00
66271;DHT22;53063;39.614;8.814;2023-04-30T12:37:43;23.70;88.40
66271;DHT22;53063;39.614;8.814;2023-04-30T12:40:10;23.50;87.50
66271;DHT22;53063;39.614;8.814;2023-04-30T12:42:37;23.50;87.10
66271;DHT22;53063;39.614;8.814;2023-04-30T12:45:03;23.70;87.10
66271;DHT22;53063;39.614;8.814;2023-04-30T12:47:29;24.00;86.20
66271;DHT22;53063;39.614;8.814;2023-04-30T12:49:55;24.70;84.10
66271;DHT22;53063;39.614;8.814;2023-04-30T12:52:25;24.60;83.00
66271;DHT22;53063;39.614;8.814;2023-04-30T12:54:51;24.30;82.30
66271;DHT22;53063;39.614;8.814;2023-04-30T12:57:18;24.30;83.00
66271;DHT22;53063;39.614;8.814;2023-04-30T12:59:57;24.90;79.70
66271;DHT22;53063;39.614;8.814;2023-04-30T13:02:28;25.30;78.30
66271;DHT22;53063;39.614;8.814;2023-04-30T13:04:56;25.90;76.30
66271;DHT22;53063;39.614;8.814;2023-04-30T13:07:22;26.00;74.00
66271;DHT22;53063;39.614;8.814;2023-04-30T13:09:48;25.50;74.00
66271;DHT22;53063;39.614;8.814;2023-04-30T13:12:14;25.40;75.20
66271;DHT22;53063;39.614;8.814;2023-04-30T13:14:40;25.40;74.70
66271;DHT22;53063;39.614;8.814;2023-04-30T13:17:06;24.90;74.90
66271;DHT22;53063;39.614;8.814;2023-04-30T13:19:34;24.80;75.70
66271;DHT22;53063;39.614;8.814;2023-04-30T13:22:00;24.70;76.20
66271;DHT22;53063;39.614;8.814;2023-04-30T13:24:29;24.70;77.40
66271;DHT22;53063;39.614;8.814;2023-04-30T13:26:55;25.00;76.70
66271;DHT22;53063;39.614;8.814;2023-04-30T13:29:23;24.60;76.70
66271;DHT22;53063;39.614;8.814;2023-04-30T13:31:49;24.40;78.50
66271;DHT22;53063;39.614;8.814;2023-04-30T13:34:15;24.70;80.40
66271;DHT22;53063;39.614;8.814;2023-04-30T13:36:41;24.90;79.20
66271;DHT22;53063;39.614;8.814;2023-04-30T13:39:07;25.00;78.20
66271;DHT22;53063;39.614;8.814;2023-04-30T13:41:33;25.00;78.10
66271;DHT22;53063;39.614;8.814;2023-04-30T13:43:59;25.00;77.00
66271;DHT22;53063;39.614;8.814;2023-04-30T13:46:25;24.50;77.50
66271;DHT22;53063;39.614;8.814;2023-04-30T13:48:51;24.10;79.70
66271;DHT22;53063;39.614;8.814;2023-04-30T13:51:18;24.40;78.30
66271;DHT22;53063;39.614;8.814;2023-04-30T13:53:44;24.60;77.60
66271;DHT22;53063;39.614;8.814;2023-04-30T13:56:11;24.20;77.90
66271;DHT22;53063;39.614;8.814;2023-04-30T13:58:37;24.00;79.20
66271;DHT22;53063;39.614;8.814;2023-04-30T14:01:03;23.70;78.80
66271;DHT22;53063;39.614;8.814;2023-04-30T14:03:29;23.40;78.90
66271;DHT22;53063;39.614;8.814;2023-04-30T14:05:55;23.10;81.30
66271;DHT22;53063;39.614;8.814;2023-04-30T14:08:22;23.10;82.30
66271;DHT22;53063;39.614;8.814;2023-04-30T14:10:48;23.30;83.20
66271;DHT22;53063;39.614;8.814;2023-04-30T14:13:14;23.40;83.80
66271;DHT22;53063;39.614;8.814;2023-04-30T14:15:40;23.40;82.50
66271;DHT22;53063;39.614;8.814;2023-04-30T14:18:06;23.30;83.70
66271;DHT22;53063;39.614;8.814;2023-04-30T14:20:31;23.20;82.20
66271;DHT22;53063;39.614;8.814;2023-04-30T14:22:57;23.20;83.90
66271;DHT22;53063;39.614;8.814;2023-04-30T14:25:23;23.30;83.80
66271;DHT22;53063;39.614;8.814;2023-04-30T14:27:49;23.50;83.40
66271;DHT22;53063;39.614;8.814;2023-04-30T14:30:15;23.30;83.20
66271;DHT22;53063;39.614;8.814;2023-04-30T14:32:41;22.90;85.10
66271;DHT22;53063;39.614;8.814;2023-04-30T14:35:07;22.50;86.20
66271;DHT22;53063;39.614;8.814;2023-04-30T14:37:34;22.10;86.90
66271;DHT22;53063;39.614;8.814;2023-04-30T14:40:00;21.80;88.30
66271;DHT22;53063;39.614;8.814;2023-04-30T14:42:27;21.60;89.60
66271;DHT22;53063;39.614;8.814;2023-04-30T14:44:53;21.40;89.70
66271;DHT22;53063;39.614;8.814;2023-04-30T14:47:19;21.20;90.90
66271;DHT22;53063;39.614;8.814;2023-04-30T14:49:46;20.90;91.90
66271;DHT22;53063;39.614;8.814;2023-04-30T14:52:12;20.70;92.70
66271;DHT22;53063;39.614;8.814;2023-04-30T14:54:38;20.70;93.50
66271;DHT22;53063;39.614;8.814;2023-04-30T14:57:06;20.60;92.40
66271;DHT22;53063;39.614;8.814;2023-04-30T14:59:32;20.60;93.00
66271;DHT22;53063;39.614;8.814;2023-04-30T15:01:59;20.60;92.50
66271;DHT22;53063;39.614;8.814;2023-04-30T15:04:25;20.60;93.20
66271;DHT22;53063;39.614;8.814;2023-04-30T15:06:51;20.40;92.10
66271;DHT22;53063;39.614;8.814;2023-04-30T15:09:17;20.00;93.40
66271;DHT22;53063;39.614;8.814;2023-04-30T15:11:43;19.90;93.70
66271;DHT22;53063;39.614;8.814;2023-04-30T15:14:09;19.90;95.30
66271;DHT22;53063;39.614;8.814;2023-04-30T15:16:35;19.90;95.10
66271;DHT22;53063;39.614;8.814;2023-04-30T15:19:01;19.90;94.70
66271;DHT22;53063;39.614;8.814;2023-04-30T15:21:27;20.00;94.80
66271;DHT22;53063;39.614;8.814;2023-04-30T15:23:53;20.30;93.70
66271;DHT22;53063;39.614;8.814;2023-04-30T15:26:19;20.40;92.70
66271;DHT22;53063;39.614;8.814;2023-04-30T15:28:45;20.50;92.10
66271;DHT22;53063;39.614;8.814;2023-04-30T15:31:11;20.70;91.20
66271;DHT22;53063;39.614;8.814;2023-04-30T15:33:37;20.80;90.20
66271;DHT22;53063;39.614;8.814;2023-04-30T15:36:07;21.00;89.80
66271;DHT22;53063;39.614;8.814;2023-04-30T15:38:34;20.80;89.10
66271;DHT22;53063;39.614;8.814;2023-04-30T15:41:00;20.50;90.10
66271;DHT22;53063;39.614;8.814;2023-04-30T15:43:26;20.40;91.60
66271;DHT22;53063;39.614;8.814;2023-04-30T15:45:52;20.30;90.40
66271;DHT22;53063;39.614;8.814;2023-04-30T15:48:18;20.10;90.20
66271;DHT22;53063;39.614;8.814;2023-04-30T15:50:44;20.00;90.10
66271;DHT22;53063;39.614;8.814;2023-04-30T15:53:10;19.70;90.50